Updated29/11/2021 9:49am 
 

Nearby Airport METAR Reports

 

KVSF - Springfield, Vermont, USA
Distance from station: WSW 8mi, 12km
Updated: 11/29/2021 9:26am
Overcast
Overcast
 Wind from calm
Wind: Calm
Temperature: 28°F , -2°C
Dew Point: 25°F , -4°C
Humidity: 86%
Barometer: 1012.5 hPa
Clouds: Overcast
Visibility: 16 km
Cloud details: Overcast 3100 ft
2021/11/29 14:26 KVSF 291426Z AUTO 00000KT 10SM OVC031 M02/M04 A2990 RMK AO2 T10171044
KLEB - Lebanon, New Hampshire, USA
Distance from station: N 18mi, 29km
Updated: 11/29/2021 8:53am
Partly cloudy
Partly cloudy
 Wind from calm
Wind: Calm
Temperature: 28°F , -2°C
Dew Point: 21°F , -6°C
Humidity: 74%
Barometer: 1012.2 hPa
Clouds: Partly cloudy
Visibility: 16 km
Cloud details: Partly cloudy 3300 ft
2021/11/29 13:53 KLEB 291353Z 00000KT 10SM SCT033 M02/M06 A2989 RMK AO2 SLP133 T10221056 $
KRUT - Rutland State, Vermont, USA
Distance from station: WNW 31mi, 50km
Updated: 11/29/2021 9:46am
Light snow, Mist, Overcast
Light snow, Mist, Overcast
 Wind from NW
Wind: NW 9 km/h
Temperature: 32°F , 0°C
Wind Chill: 26°F , -3°C
Dew Point: 32°F , 0°C
Humidity: 100%
Barometer: 1012.9 hPa
Summary: Light snow, Mist
Clouds: Overcast
Visibility: 8 km
Cloud details: Partly cloudy 1000 ft
Mostly cloudy 2000 ft
Overcast 2700 ft
2021/11/29 14:46 KRUT 291446Z AUTO 32005KT 5SM -SN BR SCT010 BKN020 OVC027 00/00 A2991 RMK AO2 P0000 FZRANO $
 
KEEN - Keene/Dillant, New Hampshire, USA
Distance from station: S 34mi, 55km
Updated: 11/29/2021 8:56am
Overcast
Overcast
 Wind from N
Wind: N 13 km/h
Temperature: 30°F , -1°C
Wind Chill: 22°F , -6°C
Dew Point: 27°F , -3°C
Humidity: 86%
Barometer: 1011.9 hPa
Clouds: Overcast
Visibility: 16 km
Cloud details: Overcast 1800 ft
2021/11/29 13:56 KEEN 291356Z AUTO 35007KT 10SM OVC018 M01/M03 A2988 RMK AO2 SLP129 T10111028 FZRANO $
K1P1 - Plymouth, New Hampshire, USA
Distance from station: NE 42mi, 67km
Updated: 11/29/2021 9:35am
Clear
Clear
 Wind from WNW
Wind: WNW 17 km/h
Temperature: 27°F , -3°C
Wind Chill: 18°F , -8°C
Dew Point: 19°F , -7°C
Humidity: 74%
Barometer: 1012.2 hPa
Clouds: Clear
Visibility: 16 km
2021/11/29 14:35 K1P1 291435Z AUTO 29009KT 10SM CLR M03/M07 A2989 RMK AO2 T10271069
KAFN - Jaffrey, New Hampshire, USA
Distance from station: SSE 44mi, 70km
Updated: 11/29/2021 8:52am
Overcast
Overcast
 Wind from calm
Wind: Calm
Temperature: 30°F , -1°C
Dew Point: 23°F , -5°C
Humidity: 75%
Barometer: 1010.5 hPa
Clouds: Overcast
Visibility: 16 km
Cloud details: Overcast 1500 ft
2021/11/29 13:52 KAFN 291352Z AUTO 00000KT 10SM OVC015 M01/M05 A2984 RMK AO2 SLP122 T10111050
 
KCON - Concord, New Hampshire, USA
Distance from station: ESE 45mi, 73km
Updated: 11/29/2021 8:51am
Overcast
Overcast
 Wind from NNW
Wind: NNW 9 km/h
Temperature: 30°F , -1°C
Wind Chill: 24°F , -4°C
Dew Point: 21°F , -6°C
Humidity: 69%
Barometer: 1011.9 hPa
Clouds: Overcast
Visibility: 16 km
Cloud details: Overcast 3200 ft
2021/11/29 13:51 KCON 291351Z AUTO 34005KT 10SM OVC032 M01/M06 A2988 RMK AO2 SLP121 T10111061
KLCI - Laconia Muni, New Hampshire, USA
Distance from station: ENE 49mi, 80km
Updated: 11/29/2021 8:56am
Overcast
Overcast
 Wind from calm
Wind: Calm
Temperature: 30°F , -1°C
Dew Point: 21°F , -6°C
Humidity: 69%
Barometer: 1011.5 hPa
Clouds: Overcast
Visibility: 16 km
Cloud details: Mostly cloudy 3900 ft
Overcast 5500 ft
2021/11/29 13:56 KLCI 291356Z AUTO 00000KT 10SM BKN039 OVC055 M01/M06 A2987 RMK AO2 SLP122 T10111061 FZRANO
KDDH - Bennington, Vermont, USA
Distance from station: SW 55mi, 89km
Updated: 11/29/2021 9:15am
Overcast
Overcast
 Wind from NW
Wind: NW 9 km/h
Temperature: 28°F , -2°C
Wind Chill: 21°F , -6°C
Dew Point: 27°F , -3°C
Humidity: 93%
Barometer: 1012.2 hPa
Clouds: Overcast
Visibility: 16 km
Cloud details: Few Clouds 1000 ft
Overcast 1500 ft
2021/11/29 14:15 KDDH 291415Z AUTO 32005KT 10SM FEW010 OVC015 M02/M03 A2989 RMK AO2 T10171033
 
K6B0 - Middlebury, Vermont, USA
Distance from station: NW 56mi, 90km
Updated: 11/29/2021 9:35am
Partly cloudy
Partly cloudy
 Wind from N
Wind: N 13 km/h
Temperature: 23°F , -5°C
Wind Chill: 14°F , -10°C
Dew Point: 21°F , -6°C
Humidity: 93%
Barometer: 1013.9 hPa
Clouds: Partly cloudy
Visibility: 16 km
Cloud details: Partly cloudy 5000 ft
2021/11/29 14:35 K6B0 291435Z AUTO 36007KT 10SM SCT050 M05/M06 A2994 RMK AO2 T10531056
KMHT - Manchester, New Hampshire, USA
Distance from station: ESE 56mi, 90km
Updated: 11/29/2021 8:53am
Overcast
Overcast
 Wind from N
Wind: N 15 km/h
Temperature: 32°F , 0°C
Wind Chill: 24°F , -4°C
Dew Point: 21°F , -6°C
Humidity: 64%
Barometer: 1011.2 hPa
Clouds: Overcast
Visibility: 16 km
Cloud details: Overcast 3000 ft
2021/11/29 13:53 KMHT 291353Z 35008KT 10SM OVC030 00/M06 A2986 RMK AO2 SLP130 T00001061
KORE - Orange, Massachusetts, USA
Distance from station: S 56mi, 90km
Updated: 11/29/2021 9:05am
Overcast
Overcast
 Wind from N
Wind: N 13 km/h
Temperature: 32°F , 0°C
Wind Chill: 25°F , -4°C
Dew Point: 27°F , -3°C
Humidity: 80%
Barometer: 1011.5 hPa
Clouds: Overcast
Visibility: 16 km
Cloud details: Mostly cloudy 1200 ft
Overcast 2800 ft
2021/11/29 14:05 KORE 291405Z AUTO 01007KT 10SM BKN012 OVC028 00/M03 A2987 RMK AO2 T00001033
 
KMPV - Montpelier/Barre, Vermont, USA
Distance from station: N 58mi, 93km
Updated: 11/29/2021 9:36am
Mist, Mostly cloudy
Mist, Mostly cloudy
 Wind from calm
Wind: Calm
Temperature: 23°F , -5°C
Dew Point: 19°F , -7°C
Humidity: 86%
Barometer: 1013.2 hPa
Summary: Mist
Clouds: Mostly cloudy
Visibility: 6 km
Cloud details: Partly cloudy 200 ft
Mostly cloudy 1000 ft
2021/11/29 14:36 KMPV 291436Z AUTO 00000KT 4SM BR SCT002 BKN010 M05/M07 A2992 RMK AO2 I1000 T10501067
KASH - Nashua/Boire Fld, New Hampshire, USA
Distance from station: SE 59mi, 95km
Updated: 11/29/2021 8:56am
Mostly cloudy
Mostly cloudy
 Wind from NW
Wind: NW 13 km/h
Temperature: 34°F , 1°C
Wind Chill: 27°F , -3°C
Dew Point: 23°F , -5°C
Humidity: 65%
Barometer: 1011.9 hPa
Clouds: Mostly cloudy
Visibility: 16 km
Cloud details: Mostly cloudy 3100 ft
2021/11/29 13:56 KASH 291356Z 32007KT 10SM BKN031 01/M05 A2988 RMK AO2 SLP125 T00061050
KAQW - North Adams, Massachusetts, USA
Distance from station: SW 62mi, 99km
Updated: 11/20/2021 9:52am
NOT Current
Clear
Clear
 Wind from SE
Wind: SE 7 km/h
Temperature: 34°F , 1°C
Wind Chill: 29°F , -2°C
Dew Point: 25°F , -4°C
Humidity: 70%
Barometer: 1033.9 hPa
Clouds: Clear
Visibility: 16 km
2021/11/20 14:52 KAQW 201452Z AUTO 14004KT 10SM CLR 01/M04 A3053 RMK AO2 SLP348 I3000 T00111044 50006
 
KGFL - Glens Falls, New York, USA
Distance from station: W 63mi, 101km
Updated: 11/29/2021 8:53am
Overcast
Overcast
 Wind from ENE
Wind: ENE 7 km/h
Temperature: 28°F , -2°C
Wind Chill: 22°F , -6°C
Dew Point: 25°F , -4°C
Humidity: 86%
Barometer: 1013.5 hPa
Clouds: Overcast
Visibility: 16 km
Cloud details: Overcast 1700 ft
2021/11/29 13:53 KGFL 291353Z AUTO 07004KT 10SM OVC017 M02/M04 A2993 RMK AO2 SLP145 T10221039
KFIT - Fitchburg, Massachusetts, USA
Distance from station: SSE 65mi, 105km
Updated: 11/29/2021 8:52am
Mostly cloudy
Mostly cloudy
 Wind from NNW
Wind: NNW 13 km/h
Temperature: 36°F , 2°C
Wind Chill: 30°F , -1°C
Dew Point: 19°F , -7°C
Humidity: 52%
Barometer: 1011.5 hPa
Clouds: Mostly cloudy
Visibility: 16 km
Cloud details: Mostly cloudy 5500 ft
2021/11/29 13:52 KFIT 291352Z AUTO 34007KT 10SM BKN055 02/M07 A2987 RMK AO2 SLP117 T00221067
KDAW - Rochester, New Hampshire, USA
Distance from station: E 73mi, 118km
Updated: 11/29/2021 8:51am
Overcast
Overcast
 Wind from NNW
Wind: NNW 15 km/h
Temperature: 30°F , -1°C
Wind Chill: 22°F , -6°C
Dew Point: 18°F , -8°C
Humidity: 59%
Barometer: 1011.2 hPa
Clouds: Overcast
Visibility: 16 km
Cloud details: Few Clouds 3200 ft
Overcast 4200 ft
2021/11/29 13:51 KDAW 291351Z AUTO 33008KT 10SM FEW032 OVC042 M01/M08 A2986 RMK AO2 SLP113 T10061078
 
K1V4 - St. Johnsbury, Vermont, USA
Distance from station: NNE 74mi, 119km
Updated: 11/29/2021 8:54am

 
Temperature: 19°F , -7°C
Dew Point: 16°F , -9°C
Humidity: 86%
Barometer: 1012.2 hPa
2021/11/29 13:54 K1V4 291354Z AUTO M07/M09 A2989 RMK AO1 SLP139 T10721094
KLWM - Lawrence, Massachusetts, USA
Distance from station: SE 77mi, 124km
Updated: 11/29/2021 8:54am
Overcast
Overcast
 Wind from NNW
Wind: NNW 9 km/h
Temperature: 34°F , 1°C
Wind Chill: 29°F , -2°C
Dew Point: 21°F , -6°C
Humidity: 60%
Barometer: 1011.9 hPa
Clouds: Overcast
Visibility: 16 km
Cloud details: Overcast 3100 ft
2021/11/29 13:54 KLWM 291354Z 34005KT 10SM OVC031 01/M06 A2988 RMK AO2 SLP121 T00111056



Flag Counter
free counter page views since 4/29/2009